sensor_id;sensor_type;location;lat;lon;timestamp;P1;durP1;ratioP1;P2;durP2;ratioP2
21624;SDS011;10974;51.034;3.744;2024-03-06T00:00:30;6.20;;;5.33;;
21624;SDS011;10974;51.034;3.744;2024-03-06T00:02:58;5.67;;;5.07;;
21624;SDS011;10974;51.034;3.744;2024-03-06T00:05:24;5.93;;;5.33;;
21624;SDS011;10974;51.034;3.744;2024-03-06T00:07:50;6.10;;;5.27;;
21624;SDS011;10974;51.034;3.744;2024-03-06T00:10:16;7.10;;;4.90;;
21624;SDS011;10974;51.034;3.744;2024-03-06T00:12:42;5.50;;;4.83;;
21624;SDS011;10974;51.034;3.744;2024-03-06T00:15:08;5.70;;;5.10;;
21624;SDS011;10974;51.034;3.744;2024-03-06T00:17:34;5.37;;;4.87;;
21624;SDS011;10974;51.034;3.744;2024-03-06T00:20:00;6.97;;;4.80;;
21624;SDS011;10974;51.034;3.744;2024-03-06T00:22:30;6.97;;;4.77;;
21624;SDS011;10974;51.034;3.744;2024-03-06T00:24:56;5.63;;;4.93;;
21624;SDS011;10974;51.034;3.744;2024-03-06T00:27:22;6.87;;;4.70;;
21624;SDS011;10974;51.034;3.744;2024-03-06T00:29:48;6.67;;;4.37;;
21624;SDS011;10974;51.034;3.744;2024-03-06T00:32:14;4.77;;;4.30;;
21624;SDS011;10974;51.034;3.744;2024-03-06T00:34:41;5.90;;;4.87;;
21624;SDS011;10974;51.034;3.744;2024-03-06T00:37:07;6.23;;;4.50;;
21624;SDS011;10974;51.034;3.744;2024-03-06T00:39:33;4.93;;;4.17;;
21624;SDS011;10974;51.034;3.744;2024-03-06T00:41:59;5.07;;;4.57;;
21624;SDS011;10974;51.034;3.744;2024-03-06T00:44:25;7.03;;;5.00;;
21624;SDS011;10974;51.034;3.744;2024-03-06T00:46:51;5.30;;;4.80;;
21624;SDS011;10974;51.034;3.744;2024-03-06T00:49:17;5.27;;;4.77;;
21624;SDS011;10974;51.034;3.744;2024-03-06T00:51:43;5.87;;;4.67;;
21624;SDS011;10974;51.034;3.744;2024-03-06T00:54:09;7.10;;;4.73;;
21624;SDS011;10974;51.034;3.744;2024-03-06T00:56:38;4.37;;;3.97;;
21624;SDS011;10974;51.034;3.744;2024-03-06T00:59:04;6.00;;;5.07;;
21624;SDS011;10974;51.034;3.744;2024-03-06T01:01:31;6.73;;;4.87;;
21624;SDS011;10974;51.034;3.744;2024-03-06T01:03:57;5.03;;;4.53;;
21624;SDS011;10974;51.034;3.744;2024-03-06T01:06:23;5.90;;;5.30;;
21624;SDS011;10974;51.034;3.744;2024-03-06T01:08:49;6.30;;;4.83;;
21624;SDS011;10974;51.034;3.744;2024-03-06T01:11:15;5.20;;;4.53;;
21624;SDS011;10974;51.034;3.744;2024-03-06T01:13:41;8.40;;;5.30;;
21624;SDS011;10974;51.034;3.744;2024-03-06T01:16:07;5.90;;;4.90;;
21624;SDS011;10974;51.034;3.744;2024-03-06T01:18:33;5.40;;;4.90;;
21624;SDS011;10974;51.034;3.744;2024-03-06T01:20:59;7.10;;;5.10;;
21624;SDS011;10974;51.034;3.744;2024-03-06T01:23:25;6.13;;;4.90;;
21624;SDS011;10974;51.034;3.744;2024-03-06T01:25:52;5.67;;;5.17;;
21624;SDS011;10974;51.034;3.744;2024-03-06T01:28:17;4.97;;;4.47;;
21624;SDS011;10974;51.034;3.744;2024-03-06T01:30:43;6.20;;;5.37;;
21624;SDS011;10974;51.034;3.744;2024-03-06T01:33:09;5.20;;;4.70;;
21624;SDS011;10974;51.034;3.744;2024-03-06T01:35:36;6.20;;;4.53;;
21624;SDS011;10974;51.034;3.744;2024-03-06T01:38:02;5.60;;;4.93;;
21624;SDS011;10974;51.034;3.744;2024-03-06T01:40:28;7.03;;;5.40;;
21624;SDS011;10974;51.034;3.744;2024-03-06T01:42:54;7.67;;;5.13;;
21624;SDS011;10974;51.034;3.744;2024-03-06T01:45:21;5.43;;;4.80;;
21624;SDS011;10974;51.034;3.744;2024-03-06T01:47:47;7.07;;;5.73;;
21624;SDS011;10974;51.034;3.744;2024-03-06T01:50:15;8.23;;;5.30;;
21624;SDS011;10974;51.034;3.744;2024-03-06T01:52:41;6.67;;;5.37;;
21624;SDS011;10974;51.034;3.744;2024-03-06T01:55:09;5.50;;;4.90;;
21624;SDS011;10974;51.034;3.744;2024-03-06T01:57:35;5.63;;;5.10;;
21624;SDS011;10974;51.034;3.744;2024-03-06T02:00:04;6.40;;;5.63;;
21624;SDS011;10974;51.034;3.744;2024-03-06T02:02:32;6.67;;;5.37;;
21624;SDS011;10974;51.034;3.744;2024-03-06T02:04:58;6.40;;;5.33;;
21624;SDS011;10974;51.034;3.744;2024-03-06T02:07:25;6.23;;;4.90;;
21624;SDS011;10974;51.034;3.744;2024-03-06T02:09:51;6.47;;;5.10;;
21624;SDS011;10974;51.034;3.744;2024-03-06T02:12:17;6.40;;;5.30;;
21624;SDS011;10974;51.034;3.744;2024-03-06T02:14:43;6.43;;;4.50;;
21624;SDS011;10974;51.034;3.744;2024-03-06T02:17:09;5.80;;;4.90;;
21624;SDS011;10974;51.034;3.744;2024-03-06T02:19:39;6.53;;;4.40;;
21624;SDS011;10974;51.034;3.744;2024-03-06T02:22:05;6.97;;;5.27;;
21624;SDS011;10974;51.034;3.744;2024-03-06T02:24:31;5.93;;;4.93;;
21624;SDS011;10974;51.034;3.744;2024-03-06T02:26:57;6.60;;;4.97;;
21624;SDS011;10974;51.034;3.744;2024-03-06T02:29:23;8.50;;;5.87;;
21624;SDS011;10974;51.034;3.744;2024-03-06T02:31:49;6.50;;;5.40;;
21624;SDS011;10974;51.034;3.744;2024-03-06T02:34:15;6.13;;;5.53;;
21624;SDS011;10974;51.034;3.744;2024-03-06T02:36:41;7.27;;;5.50;;
21624;SDS011;10974;51.034;3.744;2024-03-06T02:39:08;6.43;;;5.37;;
21624;SDS011;10974;51.034;3.744;2024-03-06T02:41:37;7.97;;;5.07;;
21624;SDS011;10974;51.034;3.744;2024-03-06T02:44:03;7.10;;;5.20;;
21624;SDS011;10974;51.034;3.744;2024-03-06T02:46:29;6.87;;;5.53;;
21624;SDS011;10974;51.034;3.744;2024-03-06T02:48:55;5.80;;;5.20;;
21624;SDS011;10974;51.034;3.744;2024-03-06T02:51:21;6.27;;;5.67;;
21624;SDS011;10974;51.034;3.744;2024-03-06T02:53:47;5.60;;;5.00;;
21624;SDS011;10974;51.034;3.744;2024-03-06T02:56:17;8.27;;;5.80;;
21624;SDS011;10974;51.034;3.744;2024-03-06T02:58:44;6.27;;;5.10;;
21624;SDS011;10974;51.034;3.744;2024-03-06T03:01:10;8.87;;;5.33;;
21624;SDS011;10974;51.034;3.744;2024-03-06T03:03:36;5.50;;;5.00;;
21624;SDS011;10974;51.034;3.744;2024-03-06T03:06:02;6.23;;;5.40;;
21624;SDS011;10974;51.034;3.744;2024-03-06T03:08:29;6.40;;;5.60;;
21624;SDS011;10974;51.034;3.744;2024-03-06T03:10:55;5.83;;;5.20;;
21624;SDS011;10974;51.034;3.744;2024-03-06T03:13:22;5.77;;;5.17;;
21624;SDS011;10974;51.034;3.744;2024-03-06T03:15:48;7.10;;;5.40;;
21624;SDS011;10974;51.034;3.744;2024-03-06T03:18:14;7.37;;;5.73;;
21624;SDS011;10974;51.034;3.744;2024-03-06T03:20:40;6.93;;;5.50;;
21624;SDS011;10974;51.034;3.744;2024-03-06T03:23:06;5.50;;;5.00;;
21624;SDS011;10974;51.034;3.744;2024-03-06T03:25:37;5.90;;;5.27;;
21624;SDS011;10974;51.034;3.744;2024-03-06T03:28:03;5.20;;;4.70;;
21624;SDS011;10974;51.034;3.744;2024-03-06T03:30:29;5.77;;;5.20;;
21624;SDS011;10974;51.034;3.744;2024-03-06T03:32:57;6.90;;;5.53;;
21624;SDS011;10974;51.034;3.744;2024-03-06T03:35:23;5.87;;;5.30;;
21624;SDS011;10974;51.034;3.744;2024-03-06T03:37:53;5.83;;;5.30;;
21624;SDS011;10974;51.034;3.744;2024-03-06T03:40:20;6.40;;;5.80;;
21624;SDS011;10974;51.034;3.744;2024-03-06T03:42:46;6.60;;;5.90;;
21624;SDS011;10974;51.034;3.744;2024-03-06T03:45:13;6.80;;;6.20;;
21624;SDS011;10974;51.034;3.744;2024-03-06T03:47:39;6.97;;;6.27;;
21624;SDS011;10974;51.034;3.744;2024-03-06T03:50:08;8.00;;;6.33;;
21624;SDS011;10974;51.034;3.744;2024-03-06T03:52:34;8.10;;;6.30;;
21624;SDS011;10974;51.034;3.744;2024-03-06T03:55:00;6.70;;;6.00;;
21624;SDS011;10974;51.034;3.744;2024-03-06T03:57:26;8.27;;;6.70;;
21624;SDS011;10974;51.034;3.744;2024-03-06T03:59:53;8.30;;;5.80;;
21624;SDS011;10974;51.034;3.744;2024-03-06T04:02:19;6.00;;;5.43;;
21624;SDS011;10974;51.034;3.744;2024-03-06T04:04:45;7.37;;;5.60;;
21624;SDS011;10974;51.034;3.744;2024-03-06T04:07:11;7.73;;;5.40;;
21624;SDS011;10974;51.034;3.744;2024-03-06T04:09:37;6.70;;;6.00;;
21624;SDS011;10974;51.034;3.744;2024-03-06T04:12:04;6.27;;;5.67;;
21624;SDS011;10974;51.034;3.744;2024-03-06T04:14:30;6.20;;;5.60;;
21624;SDS011;10974;51.034;3.744;2024-03-06T04:16:56;7.00;;;5.60;;
21624;SDS011;10974;51.034;3.744;2024-03-06T04:19:22;7.77;;;5.97;;
21624;SDS011;10974;51.034;3.744;2024-03-06T04:21:48;7.73;;;6.20;;
21624;SDS011;10974;51.034;3.744;2024-03-06T04:24:14;7.93;;;6.17;;
21624;SDS011;10974;51.034;3.744;2024-03-06T04:26:40;7.20;;;6.20;;
21624;SDS011;10974;51.034;3.744;2024-03-06T04:29:06;9.03;;;6.17;;
21624;SDS011;10974;51.034;3.744;2024-03-06T04:31:32;6.73;;;6.03;;
21624;SDS011;10974;51.034;3.744;2024-03-06T04:33:58;6.63;;;5.93;;
21624;SDS011;10974;51.034;3.744;2024-03-06T04:36:24;7.43;;;6.00;;
21624;SDS011;10974;51.034;3.744;2024-03-06T04:38:50;6.50;;;5.77;;
21624;SDS011;10974;51.034;3.744;2024-03-06T04:41:18;8.00;;;5.60;;
21624;SDS011;10974;51.034;3.744;2024-03-06T04:43:44;7.77;;;6.87;;
21624;SDS011;10974;51.034;3.744;2024-03-06T04:46:13;7.40;;;6.00;;
21624;SDS011;10974;51.034;3.744;2024-03-06T04:48:39;7.57;;;6.70;;
21624;SDS011;10974;51.034;3.744;2024-03-06T04:51:05;7.17;;;5.40;;
21624;SDS011;10974;51.034;3.744;2024-03-06T04:53:31;6.50;;;5.70;;
21624;SDS011;10974;51.034;3.744;2024-03-06T04:55:58;6.03;;;5.43;;
21624;SDS011;10974;51.034;3.744;2024-03-06T04:58:23;7.63;;;5.80;;
21624;SDS011;10974;51.034;3.744;2024-03-06T05:00:49;7.77;;;6.63;;
21624;SDS011;10974;51.034;3.744;2024-03-06T05:03:15;7.83;;;5.97;;
21624;SDS011;10974;51.034;3.744;2024-03-06T05:05:42;6.80;;;5.97;;
21624;SDS011;10974;51.034;3.744;2024-03-06T05:08:08;8.23;;;6.23;;
21624;SDS011;10974;51.034;3.744;2024-03-06T05:10:35;8.30;;;5.93;;
21624;SDS011;10974;51.034;3.744;2024-03-06T05:13:01;7.27;;;6.20;;
21624;SDS011;10974;51.034;3.744;2024-03-06T05:15:27;8.40;;;6.70;;
21624;SDS011;10974;51.034;3.744;2024-03-06T05:17:53;9.03;;;5.87;;
21624;SDS011;10974;51.034;3.744;2024-03-06T05:20:21;6.63;;;6.00;;
21624;SDS011;10974;51.034;3.744;2024-03-06T05:22:47;8.90;;;6.50;;
21624;SDS011;10974;51.034;3.744;2024-03-06T05:25:13;7.87;;;5.87;;
21624;SDS011;10974;51.034;3.744;2024-03-06T05:27:39;8.07;;;6.30;;
21624;SDS011;10974;51.034;3.744;2024-03-06T05:30:05;7.63;;;6.83;;
21624;SDS011;10974;51.034;3.744;2024-03-06T05:32:33;7.80;;;6.13;;
21624;SDS011;10974;51.034;3.744;2024-03-06T05:34:59;8.90;;;6.60;;
21624;SDS011;10974;51.034;3.744;2024-03-06T05:37:25;15.63;;;7.20;;
21624;SDS011;10974;51.034;3.744;2024-03-06T05:39:53;6.17;;;5.50;;
21624;SDS011;10974;51.034;3.744;2024-03-06T05:42:19;6.60;;;5.83;;
21624;SDS011;10974;51.034;3.744;2024-03-06T05:44:45;8.40;;;6.37;;
21624;SDS011;10974;51.034;3.744;2024-03-06T05:47:13;6.50;;;5.77;;
21624;SDS011;10974;51.034;3.744;2024-03-06T05:49:39;6.53;;;5.93;;
21624;SDS011;10974;51.034;3.744;2024-03-06T05:52:06;8.03;;;5.83;;
21624;SDS011;10974;51.034;3.744;2024-03-06T05:54:32;7.80;;;6.90;;
21624;SDS011;10974;51.034;3.744;2024-03-06T05:57:00;7.60;;;6.60;;
21624;SDS011;10974;51.034;3.744;2024-03-06T05:59:26;6.50;;;5.80;;
21624;SDS011;10974;51.034;3.744;2024-03-06T06:01:54;7.70;;;6.30;;
21624;SDS011;10974;51.034;3.744;2024-03-06T06:04:20;7.43;;;6.30;;
21624;SDS011;10974;51.034;3.744;2024-03-06T06:06:47;6.53;;;5.93;;
21624;SDS011;10974;51.034;3.744;2024-03-06T06:09:13;6.70;;;6.10;;
21624;SDS011;10974;51.034;3.744;2024-03-06T06:11:44;7.23;;;6.00;;
21624;SDS011;10974;51.034;3.744;2024-03-06T06:14:10;10.20;;;6.67;;
21624;SDS011;10974;51.034;3.744;2024-03-06T06:16:37;10.73;;;5.97;;
21624;SDS011;10974;51.034;3.744;2024-03-06T06:19:03;6.90;;;6.20;;
21624;SDS011;10974;51.034;3.744;2024-03-06T06:21:30;7.50;;;6.70;;
21624;SDS011;10974;51.034;3.744;2024-03-06T06:23:57;7.70;;;6.73;;
21624;SDS011;10974;51.034;3.744;2024-03-06T06:26:23;9.53;;;6.27;;
21624;SDS011;10974;51.034;3.744;2024-03-06T06:28:49;7.10;;;5.70;;
21624;SDS011;10974;51.034;3.744;2024-03-06T06:31:15;7.80;;;6.47;;
21624;SDS011;10974;51.034;3.744;2024-03-06T06:33:41;8.73;;;6.50;;
21624;SDS011;10974;51.034;3.744;2024-03-06T06:36:10;6.60;;;6.00;;
21624;SDS011;10974;51.034;3.744;2024-03-06T06:38:36;7.20;;;6.37;;
21624;SDS011;10974;51.034;3.744;2024-03-06T06:41:02;9.03;;;6.07;;
21624;SDS011;10974;51.034;3.744;2024-03-06T06:43:28;7.30;;;6.60;;
21624;SDS011;10974;51.034;3.744;2024-03-06T06:45:54;9.90;;;6.83;;
21624;SDS011;10974;51.034;3.744;2024-03-06T06:48:20;7.73;;;6.70;;
21624;SDS011;10974;51.034;3.744;2024-03-06T06:50:46;8.87;;;6.97;;
21624;SDS011;10974;51.034;3.744;2024-03-06T06:53:13;8.30;;;7.00;;
21624;SDS011;10974;51.034;3.744;2024-03-06T06:55:39;7.90;;;7.00;;
21624;SDS011;10974;51.034;3.744;2024-03-06T06:58:05;8.50;;;7.60;;
21624;SDS011;10974;51.034;3.744;2024-03-06T07:00:31;9.40;;;7.27;;
21624;SDS011;10974;51.034;3.744;2024-03-06T07:02:58;11.03;;;7.30;;
21624;SDS011;10974;51.034;3.744;2024-03-06T07:05:25;9.53;;;6.87;;
21624;SDS011;10974;51.034;3.744;2024-03-06T07:07:51;7.87;;;6.50;;
21624;SDS011;10974;51.034;3.744;2024-03-06T07:10:18;13.10;;;7.00;;
21624;SDS011;10974;51.034;3.744;2024-03-06T07:12:44;10.03;;;7.57;;
21624;SDS011;10974;51.034;3.744;2024-03-06T07:15:10;9.43;;;7.90;;
21624;SDS011;10974;51.034;3.744;2024-03-06T07:17:36;10.50;;;7.00;;
21624;SDS011;10974;51.034;3.744;2024-03-06T07:20:03;16.07;;;8.17;;
21624;SDS011;10974;51.034;3.744;2024-03-06T07:22:31;10.27;;;7.43;;
21624;SDS011;10974;51.034;3.744;2024-03-06T07:24:59;8.67;;;7.47;;
21624;SDS011;10974;51.034;3.744;2024-03-06T07:27:26;10.40;;;7.80;;
21624;SDS011;10974;51.034;3.744;2024-03-06T07:29:52;12.43;;;7.90;;
21624;SDS011;10974;51.034;3.744;2024-03-06T07:32:18;13.27;;;8.00;;
21624;SDS011;10974;51.034;3.744;2024-03-06T07:34:44;11.53;;;7.97;;
21624;SDS011;10974;51.034;3.744;2024-03-06T07:37:10;11.93;;;7.00;;
21624;SDS011;10974;51.034;3.744;2024-03-06T07:39:36;11.13;;;8.70;;
21624;SDS011;10974;51.034;3.744;2024-03-06T07:42:03;9.40;;;8.40;;
21624;SDS011;10974;51.034;3.744;2024-03-06T07:44:30;8.93;;;8.03;;
21624;SDS011;10974;51.034;3.744;2024-03-06T07:46:56;10.93;;;9.13;;
21624;SDS011;10974;51.034;3.744;2024-03-06T07:49:22;13.37;;;10.33;;
21624;SDS011;10974;51.034;3.744;2024-03-06T07:51:48;13.97;;;10.50;;
21624;SDS011;10974;51.034;3.744;2024-03-06T07:54:14;14.40;;;11.10;;
21624;SDS011;10974;51.034;3.744;2024-03-06T07:56:40;17.10;;;11.93;;
21624;SDS011;10974;51.034;3.744;2024-03-06T07:59:06;15.73;;;11.50;;
21624;SDS011;10974;51.034;3.744;2024-03-06T08:01:32;20.27;;;13.87;;
21624;SDS011;10974;51.034;3.744;2024-03-06T08:03:58;18.33;;;12.53;;
21624;SDS011;10974;51.034;3.744;2024-03-06T08:06:24;18.40;;;13.70;;
21624;SDS011;10974;51.034;3.744;2024-03-06T08:08:51;20.93;;;14.07;;
21624;SDS011;10974;51.034;3.744;2024-03-06T08:11:17;19.53;;;13.47;;
21624;SDS011;10974;51.034;3.744;2024-03-06T08:13:46;19.77;;;15.43;;
21624;SDS011;10974;51.034;3.744;2024-03-06T08:16:12;22.23;;;15.23;;
21624;SDS011;10974;51.034;3.744;2024-03-06T08:18:38;21.63;;;14.83;;
21624;SDS011;10974;51.034;3.744;2024-03-06T08:21:04;22.67;;;14.50;;
21624;SDS011;10974;51.034;3.744;2024-03-06T08:23:31;21.10;;;13.87;;
21624;SDS011;10974;51.034;3.744;2024-03-06T08:25:58;22.50;;;15.13;;
21624;SDS011;10974;51.034;3.744;2024-03-06T08:28:25;22.70;;;13.60;;
21624;SDS011;10974;51.034;3.744;2024-03-06T08:30:51;26.20;;;14.97;;
21624;SDS011;10974;51.034;3.744;2024-03-06T08:33:18;20.37;;;13.80;;
21624;SDS011;10974;51.034;3.744;2024-03-06T08:35:46;20.00;;;13.90;;
21624;SDS011;10974;51.034;3.744;2024-03-06T08:38:12;23.73;;;15.20;;
21624;SDS011;10974;51.034;3.744;2024-03-06T08:40:38;22.00;;;14.70;;
21624;SDS011;10974;51.034;3.744;2024-03-06T08:43:06;20.40;;;13.43;;
21624;SDS011;10974;51.034;3.744;2024-03-06T08:45:34;20.97;;;14.20;;
21624;SDS011;10974;51.034;3.744;2024-03-06T08:48:00;23.87;;;16.60;;
21624;SDS011;10974;51.034;3.744;2024-03-06T08:50:26;20.90;;;14.00;;
21624;SDS011;10974;51.034;3.744;2024-03-06T08:52:52;25.10;;;15.53;;
21624;SDS011;10974;51.034;3.744;2024-03-06T08:55:18;22.10;;;14.87;;
21624;SDS011;10974;51.034;3.744;2024-03-06T08:57:44;22.10;;;15.20;;
21624;SDS011;10974;51.034;3.744;2024-03-06T09:00:10;21.10;;;14.33;;
21624;SDS011;10974;51.034;3.744;2024-03-06T09:02:37;23.30;;;15.40;;
21624;SDS011;10974;51.034;3.744;2024-03-06T09:05:06;27.70;;;16.33;;
21624;SDS011;10974;51.034;3.744;2024-03-06T09:07:34;24.67;;;15.40;;
21624;SDS011;10974;51.034;3.744;2024-03-06T09:10:12;24.57;;;15.27;;
21624;SDS011;10974;51.034;3.744;2024-03-06T09:12:38;25.93;;;15.47;;
21624;SDS011;10974;51.034;3.744;2024-03-06T09:15:05;25.17;;;16.10;;
21624;SDS011;10974;51.034;3.744;2024-03-06T09:17:35;25.37;;;15.63;;
21624;SDS011;10974;51.034;3.744;2024-03-06T09:20:01;27.50;;;16.73;;
21624;SDS011;10974;51.034;3.744;2024-03-06T09:22:45;23.57;;;15.30;;
21624;SDS011;10974;51.034;3.744;2024-03-06T09:25:11;22.67;;;14.73;;
21624;SDS011;10974;51.034;3.744;2024-03-06T09:27:38;21.70;;;14.13;;
21624;SDS011;10974;51.034;3.744;2024-03-06T09:30:05;23.10;;;15.40;;
21624;SDS011;10974;51.034;3.744;2024-03-06T09:32:31;22.60;;;14.83;;
21624;SDS011;10974;51.034;3.744;2024-03-06T09:34:58;20.87;;;14.57;;
21624;SDS011;10974;51.034;3.744;2024-03-06T09:37:23;21.53;;;14.47;;
21624;SDS011;10974;51.034;3.744;2024-03-06T09:39:50;21.17;;;14.53;;
21624;SDS011;10974;51.034;3.744;2024-03-06T09:42:16;28.10;;;16.67;;
21624;SDS011;10974;51.034;3.744;2024-03-06T09:44:43;23.20;;;15.57;;
21624;SDS011;10974;51.034;3.744;2024-03-06T09:47:12;24.97;;;16.90;;
21624;SDS011;10974;51.034;3.744;2024-03-06T09:49:39;23.77;;;15.87;;
21624;SDS011;10974;51.034;3.744;2024-03-06T09:52:06;21.20;;;14.97;;
21624;SDS011;10974;51.034;3.744;2024-03-06T09:54:32;23.63;;;16.40;;
21624;SDS011;10974;51.034;3.744;2024-03-06T09:56:58;25.27;;;15.93;;
21624;SDS011;10974;51.034;3.744;2024-03-06T09:59:24;21.53;;;15.23;;
21624;SDS011;10974;51.034;3.744;2024-03-06T10:01:58;22.87;;;15.97;;
21624;SDS011;10974;51.034;3.744;2024-03-06T10:04:27;22.20;;;14.67;;
21624;SDS011;10974;51.034;3.744;2024-03-06T10:06:57;22.87;;;15.10;;
21624;SDS011;10974;51.034;3.744;2024-03-06T10:09:23;20.70;;;14.43;;
21624;SDS011;10974;51.034;3.744;2024-03-06T10:11:49;20.70;;;15.30;;
21624;SDS011;10974;51.034;3.744;2024-03-06T10:14:18;21.67;;;14.27;;
21624;SDS011;10974;51.034;3.744;2024-03-06T10:16:53;20.67;;;14.97;;
21624;SDS011;10974;51.034;3.744;2024-03-06T10:19:21;24.80;;;14.60;;
21624;SDS011;10974;51.034;3.744;2024-03-06T10:21:48;23.23;;;15.60;;
21624;SDS011;10974;51.034;3.744;2024-03-06T10:24:20;23.10;;;15.10;;
21624;SDS011;10974;51.034;3.744;2024-03-06T10:26:48;21.27;;;15.17;;
21624;SDS011;10974;51.034;3.744;2024-03-06T10:29:18;22.57;;;15.20;;
21624;SDS011;10974;51.034;3.744;2024-03-06T10:31:53;22.17;;;14.50;;
21624;SDS011;10974;51.034;3.744;2024-03-06T10:34:20;19.60;;;14.03;;
21624;SDS011;10974;51.034;3.744;2024-03-06T10:39:22;24.20;;;14.80;;
21624;SDS011;10974;51.034;3.744;2024-03-06T10:41:51;19.00;;;12.77;;
21624;SDS011;10974;51.034;3.744;2024-03-06T10:44:17;18.67;;;14.17;;
21624;SDS011;10974;51.034;3.744;2024-03-06T10:46:47;20.43;;;13.57;;
21624;SDS011;10974;51.034;3.744;2024-03-06T10:49:18;19.83;;;13.10;;
21624;SDS011;10974;51.034;3.744;2024-03-06T10:51:45;20.40;;;13.80;;
21624;SDS011;10974;51.034;3.744;2024-03-06T10:54:12;21.70;;;13.87;;
21624;SDS011;10974;51.034;3.744;2024-03-06T10:56:40;17.77;;;12.50;;
21624;SDS011;10974;51.034;3.744;2024-03-06T10:59:08;18.60;;;12.90;;
21624;SDS011;10974;51.034;3.744;2024-03-06T11:01:35;19.60;;;13.20;;
21624;SDS011;10974;51.034;3.744;2024-03-06T11:04:01;19.73;;;13.40;;
21624;SDS011;10974;51.034;3.744;2024-03-06T11:06:28;17.20;;;11.73;;
21624;SDS011;10974;51.034;3.744;2024-03-06T11:08:54;19.73;;;12.77;;
21624;SDS011;10974;51.034;3.744;2024-03-06T11:11:21;16.57;;;11.73;;
21624;SDS011;10974;51.034;3.744;2024-03-06T11:13:47;20.10;;;11.93;;
21624;SDS011;10974;51.034;3.744;2024-03-06T11:16:13;17.40;;;11.13;;
21624;SDS011;10974;51.034;3.744;2024-03-06T11:23:34;17.77;;;11.00;;
21624;SDS011;10974;51.034;3.744;2024-03-06T11:26:01;12.70;;;8.97;;
21624;SDS011;10974;51.034;3.744;2024-03-06T11:31:00;10.60;;;8.10;;
21624;SDS011;10974;51.034;3.744;2024-03-06T11:33:37;10.73;;;7.57;;
21624;SDS011;10974;51.034;3.744;2024-03-06T11:36:16;8.50;;;7.20;;
21624;SDS011;10974;51.034;3.744;2024-03-06T11:38:52;12.37;;;7.70;;
21624;SDS011;10974;51.034;3.744;2024-03-06T11:41:19;9.20;;;6.23;;
21624;SDS011;10974;51.034;3.744;2024-03-06T11:43:45;9.47;;;6.80;;
21624;SDS011;10974;51.034;3.744;2024-03-06T11:46:12;8.77;;;7.27;;
21624;SDS011;10974;51.034;3.744;2024-03-06T11:48:38;9.90;;;7.00;;
21624;SDS011;10974;51.034;3.744;2024-03-06T11:51:05;10.73;;;6.60;;
21624;SDS011;10974;51.034;3.744;2024-03-06T11:53:34;10.10;;;7.40;;
21624;SDS011;10974;51.034;3.744;2024-03-06T11:56:05;9.93;;;7.80;;
21624;SDS011;10974;51.034;3.744;2024-03-06T11:58:32;7.77;;;6.50;;
21624;SDS011;10974;51.034;3.744;2024-03-06T12:00:58;15.00;;;8.50;;
21624;SDS011;10974;51.034;3.744;2024-03-06T12:03:26;9.60;;;6.13;;
21624;SDS011;10974;51.034;3.744;2024-03-06T12:05:53;7.77;;;5.93;;
21624;SDS011;10974;51.034;3.744;2024-03-06T12:08:19;7.53;;;5.20;;
21624;SDS011;10974;51.034;3.744;2024-03-06T12:10:46;7.20;;;5.30;;
21624;SDS011;10974;51.034;3.744;2024-03-06T12:13:15;7.13;;;4.47;;
21624;SDS011;10974;51.034;3.744;2024-03-06T12:15:44;5.17;;;4.20;;
21624;SDS011;10974;51.034;3.744;2024-03-06T12:18:11;7.80;;;5.43;;
21624;SDS011;10974;51.034;3.744;2024-03-06T12:20:41;9.30;;;6.70;;
21624;SDS011;10974;51.034;3.744;2024-03-06T12:23:18;9.10;;;6.70;;
21624;SDS011;10974;51.034;3.744;2024-03-06T12:25:45;11.37;;;7.60;;
21624;SDS011;10974;51.034;3.744;2024-03-06T12:28:11;9.50;;;7.30;;
21624;SDS011;10974;51.034;3.744;2024-03-06T12:30:43;9.13;;;6.93;;
21624;SDS011;10974;51.034;3.744;2024-03-06T12:33:09;9.73;;;7.20;;
21624;SDS011;10974;51.034;3.744;2024-03-06T12:35:39;10.53;;;6.83;;
21624;SDS011;10974;51.034;3.744;2024-03-06T12:38:12;7.47;;;6.67;;
21624;SDS011;10974;51.034;3.744;2024-03-06T12:40:39;8.53;;;6.27;;
21624;SDS011;10974;51.034;3.744;2024-03-06T12:43:05;8.73;;;6.20;;
21624;SDS011;10974;51.034;3.744;2024-03-06T12:45:32;6.97;;;5.67;;
21624;SDS011;10974;51.034;3.744;2024-03-06T12:47:58;10.40;;;6.13;;
21624;SDS011;10974;51.034;3.744;2024-03-06T12:50:24;7.73;;;5.53;;
21624;SDS011;10974;51.034;3.744;2024-03-06T12:52:50;4.83;;;4.33;;
21624;SDS011;10974;51.034;3.744;2024-03-06T12:55:17;8.03;;;5.13;;
21624;SDS011;10974;51.034;3.744;2024-03-06T12:57:44;6.13;;;5.43;;
21624;SDS011;10974;51.034;3.744;2024-03-06T13:00:11;6.53;;;4.83;;
21624;SDS011;10974;51.034;3.744;2024-03-06T13:02:43;10.43;;;5.00;;
21624;SDS011;10974;51.034;3.744;2024-03-06T13:05:10;5.10;;;4.27;;
21624;SDS011;10974;51.034;3.744;2024-03-06T13:07:36;13.50;;;4.70;;
21624;SDS011;10974;51.034;3.744;2024-03-06T13:10:02;6.90;;;4.53;;
21624;SDS011;10974;51.034;3.744;2024-03-06T13:12:28;10.63;;;4.63;;
21624;SDS011;10974;51.034;3.744;2024-03-06T13:14:55;6.60;;;4.53;;
21624;SDS011;10974;51.034;3.744;2024-03-06T13:17:21;7.10;;;4.70;;
21624;SDS011;10974;51.034;3.744;2024-03-06T13:19:47;6.97;;;4.67;;
21624;SDS011;10974;51.034;3.744;2024-03-06T13:22:14;6.03;;;3.90;;
21624;SDS011;10974;51.034;3.744;2024-03-06T13:24:40;6.67;;;4.77;;
21624;SDS011;10974;51.034;3.744;2024-03-06T13:27:06;5.90;;;4.43;;
21624;SDS011;10974;51.034;3.744;2024-03-06T13:29:33;12.03;;;4.60;;
21624;SDS011;10974;51.034;3.744;2024-03-06T13:31:59;5.30;;;4.73;;
21624;SDS011;10974;51.034;3.744;2024-03-06T13:34:25;5.73;;;4.77;;
21624;SDS011;10974;51.034;3.744;2024-03-06T13:36:51;4.93;;;4.43;;
21624;SDS011;10974;51.034;3.744;2024-03-06T13:39:18;7.67;;;5.10;;
21624;SDS011;10974;51.034;3.744;2024-03-06T13:41:44;6.00;;;4.47;;
21624;SDS011;10974;51.034;3.744;2024-03-06T13:44:10;7.73;;;4.80;;
21624;SDS011;10974;51.034;3.744;2024-03-06T13:46:36;7.97;;;5.60;;
21624;SDS011;10974;51.034;3.744;2024-03-06T13:49:02;7.77;;;5.30;;
21624;SDS011;10974;51.034;3.744;2024-03-06T13:51:28;4.53;;;4.10;;
21624;SDS011;10974;51.034;3.744;2024-03-06T13:53:55;5.13;;;4.17;;
21624;SDS011;10974;51.034;3.744;2024-03-06T13:56:21;7.40;;;5.20;;
21624;SDS011;10974;51.034;3.744;2024-03-06T13:58:47;6.10;;;4.07;;
21624;SDS011;10974;51.034;3.744;2024-03-06T14:01:13;5.10;;;4.60;;
21624;SDS011;10974;51.034;3.744;2024-03-06T14:03:39;7.10;;;4.80;;
21624;SDS011;10974;51.034;3.744;2024-03-06T14:06:06;4.70;;;3.93;;
21624;SDS011;10974;51.034;3.744;2024-03-06T14:08:34;3.70;;;3.40;;
21624;SDS011;10974;51.034;3.744;2024-03-06T14:11:03;3.47;;;2.97;;
21624;SDS011;10974;51.034;3.744;2024-03-06T14:13:31;3.80;;;3.50;;
21624;SDS011;10974;51.034;3.744;2024-03-06T14:15:58;4.80;;;3.87;;
21624;SDS011;10974;51.034;3.744;2024-03-06T14:18:25;6.90;;;3.93;;
21624;SDS011;10974;51.034;3.744;2024-03-06T14:20:52;4.90;;;3.80;;
21624;SDS011;10974;51.034;3.744;2024-03-06T14:23:18;4.03;;;3.63;;
21624;SDS011;10974;51.034;3.744;2024-03-06T14:25:45;5.20;;;3.67;;
21624;SDS011;10974;51.034;3.744;2024-03-06T14:28:11;5.70;;;4.47;;
21624;SDS011;10974;51.034;3.744;2024-03-06T14:30:37;5.57;;;4.67;;
21624;SDS011;10974;51.034;3.744;2024-03-06T14:33:03;7.07;;;4.53;;
21624;SDS011;10974;51.034;3.744;2024-03-06T14:35:29;6.57;;;4.00;;
21624;SDS011;10974;51.034;3.744;2024-03-06T14:37:56;5.10;;;4.60;;
21624;SDS011;10974;51.034;3.744;2024-03-06T14:40:22;7.53;;;4.60;;
21624;SDS011;10974;51.034;3.744;2024-03-06T14:42:49;8.23;;;4.57;;
21624;SDS011;10974;51.034;3.744;2024-03-06T14:45:15;6.70;;;4.03;;
21624;SDS011;10974;51.034;3.744;2024-03-06T14:47:41;5.03;;;4.00;;